sensor_id;sensor_type;location;lat;lon;timestamp;P1;durP1;ratioP1;P2;durP2;ratioP2
18499;SDS011;9379;52.134;11.576;2024-01-07T00:01:08;11.23;;;7.80;;
18499;SDS011;9379;52.134;11.576;2024-01-07T00:03:35;11.95;;;8.85;;
18499;SDS011;9379;52.134;11.576;2024-01-07T00:06:02;10.50;;;8.05;;
18499;SDS011;9379;52.134;11.576;2024-01-07T00:08:29;10.15;;;7.90;;
18499;SDS011;9379;52.134;11.576;2024-01-07T00:10:56;11.18;;;8.13;;
18499;SDS011;9379;52.134;11.576;2024-01-07T00:13:24;9.43;;;7.50;;
18499;SDS011;9379;52.134;11.576;2024-01-07T00:15:51;8.30;;;7.35;;
18499;SDS011;9379;52.134;11.576;2024-01-07T00:18:20;11.90;;;7.65;;
18499;SDS011;9379;52.134;11.576;2024-01-07T00:20:49;12.93;;;9.05;;
18499;SDS011;9379;52.134;11.576;2024-01-07T00:23:16;8.60;;;7.65;;
18499;SDS011;9379;52.134;11.576;2024-01-07T00:25:42;8.77;;;7.80;;
18499;SDS011;9379;52.134;11.576;2024-01-07T00:28:09;10.32;;;8.23;;
18499;SDS011;9379;52.134;11.576;2024-01-07T00:30:38;10.20;;;8.40;;
18499;SDS011;9379;52.134;11.576;2024-01-07T00:33:05;7.70;;;7.07;;
18499;SDS011;9379;52.134;11.576;2024-01-07T00:35:31;8.40;;;7.57;;
18499;SDS011;9379;52.134;11.576;2024-01-07T00:37:58;11.55;;;7.75;;
18499;SDS011;9379;52.134;11.576;2024-01-07T00:40:25;7.13;;;6.43;;
18499;SDS011;9379;52.134;11.576;2024-01-07T00:42:52;7.50;;;6.82;;
18499;SDS011;9379;52.134;11.576;2024-01-07T00:45:19;9.45;;;7.05;;
18499;SDS011;9379;52.134;11.576;2024-01-07T00:47:48;10.52;;;7.78;;
18499;SDS011;9379;52.134;11.576;2024-01-07T00:50:15;8.45;;;6.93;;
18499;SDS011;9379;52.134;11.576;2024-01-07T00:52:42;7.50;;;6.65;;
18499;SDS011;9379;52.134;11.576;2024-01-07T00:55:10;6.22;;;5.63;;
18499;SDS011;9379;52.134;11.576;2024-01-07T00:57:37;7.85;;;6.82;;
18499;SDS011;9379;52.134;11.576;2024-01-07T01:00:04;5.22;;;4.75;;
18499;SDS011;9379;52.134;11.576;2024-01-07T01:02:33;9.43;;;5.88;;
18499;SDS011;9379;52.134;11.576;2024-01-07T01:05:02;22.65;;;7.88;;
18499;SDS011;9379;52.134;11.576;2024-01-07T01:07:30;6.03;;;4.72;;
18499;SDS011;9379;52.134;11.576;2024-01-07T01:09:57;6.80;;;6.10;;
18499;SDS011;9379;52.134;11.576;2024-01-07T01:12:24;6.93;;;5.65;;
18499;SDS011;9379;52.134;11.576;2024-01-07T01:14:51;8.50;;;5.45;;
18499;SDS011;9379;52.134;11.576;2024-01-07T01:17:18;5.45;;;4.95;;
18499;SDS011;9379;52.134;11.576;2024-01-07T01:19:45;7.25;;;5.82;;
18499;SDS011;9379;52.134;11.576;2024-01-07T01:22:14;4.63;;;4.25;;
18499;SDS011;9379;52.134;11.576;2024-01-07T01:24:41;4.57;;;4.20;;
18499;SDS011;9379;52.134;11.576;2024-01-07T01:27:09;8.20;;;4.80;;
18499;SDS011;9379;52.134;11.576;2024-01-07T01:29:36;8.40;;;5.90;;
18499;SDS011;9379;52.134;11.576;2024-01-07T01:32:03;5.00;;;4.63;;
18499;SDS011;9379;52.134;11.576;2024-01-07T01:34:31;5.43;;;4.93;;
18499;SDS011;9379;52.134;11.576;2024-01-07T01:36:58;5.18;;;4.68;;
18499;SDS011;9379;52.134;11.576;2024-01-07T01:39:26;4.72;;;4.32;;
18499;SDS011;9379;52.134;11.576;2024-01-07T01:41:54;4.68;;;3.92;;
18499;SDS011;9379;52.134;11.576;2024-01-07T01:44:21;5.93;;;4.55;;
18499;SDS011;9379;52.134;11.576;2024-01-07T01:46:48;4.95;;;4.43;;
18499;SDS011;9379;52.134;11.576;2024-01-07T01:49:16;5.30;;;4.60;;
18499;SDS011;9379;52.134;11.576;2024-01-07T01:51:43;4.13;;;3.72;;
18499;SDS011;9379;52.134;11.576;2024-01-07T01:54:10;5.05;;;4.63;;
18499;SDS011;9379;52.134;11.576;2024-01-07T01:56:40;3.65;;;3.35;;
18499;SDS011;9379;52.134;11.576;2024-01-07T01:59:07;4.57;;;3.88;;
18499;SDS011;9379;52.134;11.576;2024-01-07T02:01:34;4.07;;;3.38;;
18499;SDS011;9379;52.134;11.576;2024-01-07T02:04:02;5.32;;;4.82;;
18499;SDS011;9379;52.134;11.576;2024-01-07T02:06:29;4.35;;;4.03;;
18499;SDS011;9379;52.134;11.576;2024-01-07T02:08:56;3.75;;;3.45;;
18499;SDS011;9379;52.134;11.576;2024-01-07T02:11:23;5.00;;;4.13;;
18499;SDS011;9379;52.134;11.576;2024-01-07T02:13:52;4.57;;;4.15;;
18499;SDS011;9379;52.134;11.576;2024-01-07T02:16:19;4.25;;;3.72;;
18499;SDS011;9379;52.134;11.576;2024-01-07T02:18:46;4.18;;;3.88;;
18499;SDS011;9379;52.134;11.576;2024-01-07T02:21:13;4.63;;;4.20;;
18499;SDS011;9379;52.134;11.576;2024-01-07T02:23:40;6.30;;;3.42;;
18499;SDS011;9379;52.134;11.576;2024-01-07T02:26:09;7.60;;;3.70;;
18499;SDS011;9379;52.134;11.576;2024-01-07T02:28:35;7.25;;;4.07;;
18499;SDS011;9379;52.134;11.576;2024-01-07T02:31:02;6.50;;;4.40;;
18499;SDS011;9379;52.134;11.576;2024-01-07T02:33:29;4.55;;;3.50;;
18499;SDS011;9379;52.134;11.576;2024-01-07T02:35:56;6.97;;;5.25;;
18499;SDS011;9379;52.134;11.576;2024-01-07T02:38:23;6.80;;;4.95;;
18499;SDS011;9379;52.134;11.576;2024-01-07T02:40:50;5.53;;;5.03;;
18499;SDS011;9379;52.134;11.576;2024-01-07T02:43:18;6.13;;;5.38;;
18499;SDS011;9379;52.134;11.576;2024-01-07T02:45:45;5.22;;;4.65;;
18499;SDS011;9379;52.134;11.576;2024-01-07T02:48:12;4.45;;;3.80;;
18499;SDS011;9379;52.134;11.576;2024-01-07T02:50:39;4.75;;;4.28;;
18499;SDS011;9379;52.134;11.576;2024-01-07T02:53:07;7.32;;;3.97;;
18499;SDS011;9379;52.134;11.576;2024-01-07T02:55:36;5.28;;;4.10;;
18499;SDS011;9379;52.134;11.576;2024-01-07T02:58:03;3.75;;;3.40;;
18499;SDS011;9379;52.134;11.576;2024-01-07T03:00:31;4.25;;;3.33;;
18499;SDS011;9379;52.134;11.576;2024-01-07T03:02:58;4.20;;;3.80;;
18499;SDS011;9379;52.134;11.576;2024-01-07T03:05:25;3.70;;;3.40;;
18499;SDS011;9379;52.134;11.576;2024-01-07T03:07:54;6.85;;;4.22;;
18499;SDS011;9379;52.134;11.576;2024-01-07T03:10:21;5.53;;;4.28;;
18499;SDS011;9379;52.134;11.576;2024-01-07T03:12:48;3.78;;;3.47;;
18499;SDS011;9379;52.134;11.576;2024-01-07T03:15:14;4.32;;;3.20;;
18499;SDS011;9379;52.134;11.576;2024-01-07T03:17:43;3.40;;;3.20;;
18499;SDS011;9379;52.134;11.576;2024-01-07T03:20:10;4.20;;;3.45;;
18499;SDS011;9379;52.134;11.576;2024-01-07T03:22:37;5.47;;;4.30;;
18499;SDS011;9379;52.134;11.576;2024-01-07T03:25:05;4.10;;;3.33;;
18499;SDS011;9379;52.134;11.576;2024-01-07T03:27:32;3.28;;;3.05;;
18499;SDS011;9379;52.134;11.576;2024-01-07T03:29:59;3.38;;;2.90;;
18499;SDS011;9379;52.134;11.576;2024-01-07T03:32:26;4.93;;;4.28;;
18499;SDS011;9379;52.134;11.576;2024-01-07T03:34:55;3.67;;;2.40;;
18499;SDS011;9379;52.134;11.576;2024-01-07T03:37:21;4.13;;;3.75;;
18499;SDS011;9379;52.134;11.576;2024-01-07T03:39:48;7.40;;;3.00;;
18499;SDS011;9379;52.134;11.576;2024-01-07T03:42:15;3.30;;;3.00;;
18499;SDS011;9379;52.134;11.576;2024-01-07T03:44:42;6.38;;;3.50;;
18499;SDS011;9379;52.134;11.576;2024-01-07T03:47:09;3.13;;;2.83;;
18499;SDS011;9379;52.134;11.576;2024-01-07T03:49:36;4.15;;;3.13;;
18499;SDS011;9379;52.134;11.576;2024-01-07T03:52:05;4.25;;;3.17;;
18499;SDS011;9379;52.134;11.576;2024-01-07T03:54:33;3.45;;;2.65;;
18499;SDS011;9379;52.134;11.576;2024-01-07T03:57:00;4.50;;;3.47;;
18499;SDS011;9379;52.134;11.576;2024-01-07T03:59:27;3.40;;;2.78;;
18499;SDS011;9379;52.134;11.576;2024-01-07T04:01:55;3.08;;;2.88;;
18499;SDS011;9379;52.134;11.576;2024-01-07T04:04:23;2.58;;;2.35;;
18499;SDS011;9379;52.134;11.576;2024-01-07T04:06:50;3.30;;;3.00;;
18499;SDS011;9379;52.134;11.576;2024-01-07T04:09:18;3.45;;;3.00;;
18499;SDS011;9379;52.134;11.576;2024-01-07T04:11:45;2.53;;;2.33;;
18499;SDS011;9379;52.134;11.576;2024-01-07T04:14:13;4.72;;;3.33;;
18499;SDS011;9379;52.134;11.576;2024-01-07T04:16:41;2.72;;;2.53;;
18499;SDS011;9379;52.134;11.576;2024-01-07T04:19:10;2.65;;;2.17;;
18499;SDS011;9379;52.134;11.576;2024-01-07T04:21:37;5.15;;;2.90;;
18499;SDS011;9379;52.134;11.576;2024-01-07T04:24:04;3.70;;;2.90;;
18499;SDS011;9379;52.134;11.576;2024-01-07T04:26:33;4.35;;;3.17;;
18499;SDS011;9379;52.134;11.576;2024-01-07T04:28:59;2.30;;;2.20;;
18499;SDS011;9379;52.134;11.576;2024-01-07T04:31:26;4.68;;;3.00;;
18499;SDS011;9379;52.134;11.576;2024-01-07T04:33:53;3.40;;;3.10;;
18499;SDS011;9379;52.134;11.576;2024-01-07T04:36:20;3.53;;;2.38;;
18499;SDS011;9379;52.134;11.576;2024-01-07T04:38:47;3.67;;;2.85;;
18499;SDS011;9379;52.134;11.576;2024-01-07T04:41:14;3.35;;;3.05;;
18499;SDS011;9379;52.134;11.576;2024-01-07T04:43:43;3.75;;;3.45;;
18499;SDS011;9379;52.134;11.576;2024-01-07T04:46:10;3.13;;;2.83;;
18499;SDS011;9379;52.134;11.576;2024-01-07T04:48:37;2.63;;;2.47;;
18499;SDS011;9379;52.134;11.576;2024-01-07T04:51:04;3.25;;;2.53;;
18499;SDS011;9379;52.134;11.576;2024-01-07T04:53:31;3.35;;;2.95;;
18499;SDS011;9379;52.134;11.576;2024-01-07T04:55:58;3.17;;;2.92;;
18499;SDS011;9379;52.134;11.576;2024-01-07T04:58:25;5.55;;;3.22;;
18499;SDS011;9379;52.134;11.576;2024-01-07T05:00:53;3.78;;;2.08;;
18499;SDS011;9379;52.134;11.576;2024-01-07T05:03:20;4.68;;;2.83;;
18499;SDS011;9379;52.134;11.576;2024-01-07T05:05:47;2.47;;;2.28;;
18499;SDS011;9379;52.134;11.576;2024-01-07T05:08:14;2.63;;;2.42;;
18499;SDS011;9379;52.134;11.576;2024-01-07T05:10:41;4.85;;;3.33;;
18499;SDS011;9379;52.134;11.576;2024-01-07T05:13:08;5.38;;;3.65;;
18499;SDS011;9379;52.134;11.576;2024-01-07T05:15:35;3.00;;;2.70;;
18499;SDS011;9379;52.134;11.576;2024-01-07T05:18:04;3.38;;;3.08;;
18499;SDS011;9379;52.134;11.576;2024-01-07T05:20:34;2.58;;;2.38;;
18499;SDS011;9379;52.134;11.576;2024-01-07T05:23:01;2.83;;;2.63;;
18499;SDS011;9379;52.134;11.576;2024-01-07T05:25:28;2.75;;;2.55;;
18499;SDS011;9379;52.134;11.576;2024-01-07T05:27:55;2.40;;;2.20;;
18499;SDS011;9379;52.134;11.576;2024-01-07T05:30:21;2.78;;;2.55;;
18499;SDS011;9379;52.134;11.576;2024-01-07T05:32:48;5.45;;;2.50;;
18499;SDS011;9379;52.134;11.576;2024-01-07T05:35:17;9.57;;;2.50;;
18499;SDS011;9379;52.134;11.576;2024-01-07T05:37:44;2.15;;;1.98;;
18499;SDS011;9379;52.134;11.576;2024-01-07T05:40:11;2.70;;;2.50;;
18499;SDS011;9379;52.134;11.576;2024-01-07T05:42:38;4.03;;;2.90;;
18499;SDS011;9379;52.134;11.576;2024-01-07T05:45:05;4.10;;;2.88;;
18499;SDS011;9379;52.134;11.576;2024-01-07T05:47:32;2.65;;;2.45;;
18499;SDS011;9379;52.134;11.576;2024-01-07T05:49:59;2.65;;;2.45;;
18499;SDS011;9379;52.134;11.576;2024-01-07T05:52:28;3.13;;;2.72;;
18499;SDS011;9379;52.134;11.576;2024-01-07T05:54:55;3.45;;;2.92;;
18499;SDS011;9379;52.134;11.576;2024-01-07T05:57:22;2.65;;;2.45;;
18499;SDS011;9379;52.134;11.576;2024-01-07T05:59:49;3.63;;;2.55;;
18499;SDS011;9379;52.134;11.576;2024-01-07T06:02:16;2.35;;;2.15;;
18499;SDS011;9379;52.134;11.576;2024-01-07T06:04:43;3.60;;;3.30;;
18499;SDS011;9379;52.134;11.576;2024-01-07T06:07:10;3.20;;;2.72;;
18499;SDS011;9379;52.134;11.576;2024-01-07T06:09:38;2.35;;;2.17;;
18499;SDS011;9379;52.134;11.576;2024-01-07T06:12:06;3.28;;;2.97;;
18499;SDS011;9379;52.134;11.576;2024-01-07T06:14:33;4.47;;;2.83;;
18499;SDS011;9379;52.134;11.576;2024-01-07T06:17:00;3.78;;;2.83;;
18499;SDS011;9379;52.134;11.576;2024-01-07T06:19:27;5.18;;;2.72;;
18499;SDS011;9379;52.134;11.576;2024-01-07T06:21:53;3.83;;;2.97;;
18499;SDS011;9379;52.134;11.576;2024-01-07T06:24:20;3.00;;;2.13;;
18499;SDS011;9379;52.134;11.576;2024-01-07T06:26:49;3.50;;;3.20;;
18499;SDS011;9379;52.134;11.576;2024-01-07T06:29:15;3.20;;;2.55;;
18499;SDS011;9379;52.134;11.576;2024-01-07T06:31:44;3.88;;;3.53;;
18499;SDS011;9379;52.134;11.576;2024-01-07T06:34:11;3.53;;;3.22;;
18499;SDS011;9379;52.134;11.576;2024-01-07T06:36:39;3.53;;;3.03;;
18499;SDS011;9379;52.134;11.576;2024-01-07T06:39:06;2.95;;;2.75;;
18499;SDS011;9379;52.134;11.576;2024-01-07T06:41:33;2.67;;;2.47;;
18499;SDS011;9379;52.134;11.576;2024-01-07T06:44:02;2.65;;;2.40;;
18499;SDS011;9379;52.134;11.576;2024-01-07T06:46:29;2.90;;;2.70;;
18499;SDS011;9379;52.134;11.576;2024-01-07T06:48:55;3.17;;;2.75;;
18499;SDS011;9379;52.134;11.576;2024-01-07T06:51:22;2.85;;;2.65;;
18499;SDS011;9379;52.134;11.576;2024-01-07T06:53:49;5.17;;;3.23;;
18499;SDS011;9379;52.134;11.576;2024-01-07T06:56:16;2.40;;;2.20;;
18499;SDS011;9379;52.134;11.576;2024-01-07T06:58:43;3.50;;;3.20;;
18499;SDS011;9379;52.134;11.576;2024-01-07T07:01:12;3.72;;;2.67;;
18499;SDS011;9379;52.134;11.576;2024-01-07T07:03:39;4.30;;;2.90;;
18499;SDS011;9379;52.134;11.576;2024-01-07T07:06:06;3.13;;;2.70;;
18499;SDS011;9379;52.134;11.576;2024-01-07T07:08:33;2.93;;;2.73;;
18499;SDS011;9379;52.134;11.576;2024-01-07T07:11:00;3.17;;;2.90;;
18499;SDS011;9379;52.134;11.576;2024-01-07T07:13:27;3.90;;;2.85;;
18499;SDS011;9379;52.134;11.576;2024-01-07T07:15:54;5.65;;;2.70;;
18499;SDS011;9379;52.134;11.576;2024-01-07T07:18:22;3.05;;;2.60;;
18499;SDS011;9379;52.134;11.576;2024-01-07T07:20:49;4.45;;;3.13;;
18499;SDS011;9379;52.134;11.576;2024-01-07T07:23:16;2.65;;;2.45;;
18499;SDS011;9379;52.134;11.576;2024-01-07T07:25:43;3.20;;;2.92;;
18499;SDS011;9379;52.134;11.576;2024-01-07T07:28:11;3.17;;;2.80;;
18499;SDS011;9379;52.134;11.576;2024-01-07T07:30:38;3.00;;;2.80;;
18499;SDS011;9379;52.134;11.576;2024-01-07T07:33:04;3.03;;;2.83;;
18499;SDS011;9379;52.134;11.576;2024-01-07T07:35:33;5.95;;;3.50;;
18499;SDS011;9379;52.134;11.576;2024-01-07T07:38:00;2.65;;;2.22;;
18499;SDS011;9379;52.134;11.576;2024-01-07T07:40:27;3.08;;;2.83;;
18499;SDS011;9379;52.134;11.576;2024-01-07T07:42:53;5.20;;;3.40;;
18499;SDS011;9379;52.134;11.576;2024-01-07T07:45:20;2.25;;;2.15;;
18499;SDS011;9379;52.134;11.576;2024-01-07T07:47:47;2.90;;;2.72;;
18499;SDS011;9379;52.134;11.576;2024-01-07T07:50:14;3.25;;;2.97;;
18499;SDS011;9379;52.134;11.576;2024-01-07T07:52:43;4.50;;;3.75;;
18499;SDS011;9379;52.134;11.576;2024-01-07T07:55:10;3.80;;;3.50;;
18499;SDS011;9379;52.134;11.576;2024-01-07T07:57:37;2.97;;;2.78;;
18499;SDS011;9379;52.134;11.576;2024-01-07T08:00:04;4.25;;;3.83;;
18499;SDS011;9379;52.134;11.576;2024-01-07T08:02:32;4.45;;;3.60;;
18499;SDS011;9379;52.134;11.576;2024-01-07T08:04:59;2.83;;;2.63;;
18499;SDS011;9379;52.134;11.576;2024-01-07T08:07:26;3.65;;;3.08;;
18499;SDS011;9379;52.134;11.576;2024-01-07T08:09:54;3.17;;;2.95;;
18499;SDS011;9379;52.134;11.576;2024-01-07T08:12:22;4.03;;;2.65;;
18499;SDS011;9379;52.134;11.576;2024-01-07T08:14:49;4.03;;;3.30;;
18499;SDS011;9379;52.134;11.576;2024-01-07T08:17:16;3.00;;;2.80;;
18499;SDS011;9379;52.134;11.576;2024-01-07T08:19:44;3.97;;;3.47;;
18499;SDS011;9379;52.134;11.576;2024-01-07T08:22:12;3.30;;;3.03;;
18499;SDS011;9379;52.134;11.576;2024-01-07T08:24:39;4.05;;;3.72;;
18499;SDS011;9379;52.134;11.576;2024-01-07T08:27:08;3.90;;;3.47;;
18499;SDS011;9379;52.134;11.576;2024-01-07T08:29:34;3.80;;;3.50;;
18499;SDS011;9379;52.134;11.576;2024-01-07T08:32:02;3.03;;;2.83;;
18499;SDS011;9379;52.134;11.576;2024-01-07T08:34:29;4.20;;;3.55;;
18499;SDS011;9379;52.134;11.576;2024-01-07T08:36:55;3.55;;;3.25;;
18499;SDS011;9379;52.134;11.576;2024-01-07T08:39:22;4.43;;;3.22;;
18499;SDS011;9379;52.134;11.576;2024-01-07T08:41:50;3.53;;;3.25;;
18499;SDS011;9379;52.134;11.576;2024-01-07T08:54:26;4.25;;;3.05;;
18499;SDS011;9379;52.134;11.576;2024-01-07T08:56:53;3.05;;;2.42;;
18499;SDS011;9379;52.134;11.576;2024-01-07T08:59:19;3.97;;;3.65;;
18499;SDS011;9379;52.134;11.576;2024-01-07T09:01:47;3.63;;;2.40;;
18499;SDS011;9379;52.134;11.576;2024-01-07T09:04:13;3.80;;;2.90;;
18499;SDS011;9379;52.134;11.576;2024-01-07T09:06:41;5.22;;;3.25;;
18499;SDS011;9379;52.134;11.576;2024-01-07T09:09:08;7.60;;;3.75;;
18499;SDS011;9379;52.134;11.576;2024-01-07T09:11:37;3.92;;;3.63;;
18499;SDS011;9379;52.134;11.576;2024-01-07T09:14:04;3.90;;;3.60;;
18499;SDS011;9379;52.134;11.576;2024-01-07T09:16:31;3.60;;;3.33;;
18499;SDS011;9379;52.134;11.576;2024-01-07T09:18:57;5.45;;;4.05;;
18499;SDS011;9379;52.134;11.576;2024-01-07T09:21:24;4.55;;;3.72;;
18499;SDS011;9379;52.134;11.576;2024-01-07T09:23:51;7.70;;;3.55;;
18499;SDS011;9379;52.134;11.576;2024-01-07T09:26:18;5.30;;;3.60;;
18499;SDS011;9379;52.134;11.576;2024-01-07T09:28:46;4.80;;;3.80;;
18499;SDS011;9379;52.134;11.576;2024-01-07T09:31:13;4.03;;;3.53;;
18499;SDS011;9379;52.134;11.576;2024-01-07T09:33:40;3.90;;;3.47;;
18499;SDS011;9379;52.134;11.576;2024-01-07T09:36:07;3.97;;;3.13;;
18499;SDS011;9379;52.134;11.576;2024-01-07T09:38:35;4.30;;;3.90;;
18499;SDS011;9379;52.134;11.576;2024-01-07T09:41:02;4.13;;;3.78;;
18499;SDS011;9379;52.134;11.576;2024-01-07T09:43:29;5.93;;;2.90;;
18499;SDS011;9379;52.134;11.576;2024-01-07T09:45:58;3.65;;;3.35;;
18499;SDS011;9379;52.134;11.576;2024-01-07T09:48:26;4.63;;;3.22;;
18499;SDS011;9379;52.134;11.576;2024-01-07T09:50:53;3.90;;;3.30;;
18499;SDS011;9379;52.134;11.576;2024-01-07T09:53:20;4.93;;;3.38;;
18499;SDS011;9379;52.134;11.576;2024-01-07T09:55:52;4.43;;;3.42;;
18499;SDS011;9379;52.134;11.576;2024-01-07T09:58:25;3.00;;;2.80;;
18499;SDS011;9379;52.134;11.576;2024-01-07T10:00:52;5.60;;;4.30;;
18499;SDS011;9379;52.134;11.576;2024-01-07T10:03:20;4.35;;;3.53;;
18499;SDS011;9379;52.134;11.576;2024-01-07T10:05:47;4.43;;;3.50;;
18499;SDS011;9379;52.134;11.576;2024-01-07T10:08:14;4.07;;;3.63;;
18499;SDS011;9379;52.134;11.576;2024-01-07T10:10:41;3.75;;;3.40;;
18499;SDS011;9379;52.134;11.576;2024-01-07T10:13:08;5.85;;;4.20;;
18499;SDS011;9379;52.134;11.576;2024-01-07T10:15:35;4.20;;;3.80;;
18499;SDS011;9379;52.134;11.576;2024-01-07T10:18:02;3.67;;;3.38;;
18499;SDS011;9379;52.134;11.576;2024-01-07T10:20:32;4.10;;;3.40;;
18499;SDS011;9379;52.134;11.576;2024-01-07T10:23:00;4.43;;;3.25;;
18499;SDS011;9379;52.134;11.576;2024-01-07T10:25:28;4.80;;;3.35;;
18499;SDS011;9379;52.134;11.576;2024-01-07T10:27:58;7.53;;;4.57;;
18499;SDS011;9379;52.134;11.576;2024-01-07T10:30:26;7.75;;;4.00;;
18499;SDS011;9379;52.134;11.576;2024-01-07T10:32:55;5.30;;;4.03;;
18499;SDS011;9379;52.134;11.576;2024-01-07T10:35:26;4.28;;;3.50;;
18499;SDS011;9379;52.134;11.576;2024-01-07T10:37:57;4.75;;;3.63;;
18499;SDS011;9379;52.134;11.576;2024-01-07T10:40:24;4.13;;;3.78;;
18499;SDS011;9379;52.134;11.576;2024-01-07T10:42:54;5.80;;;4.13;;
18499;SDS011;9379;52.134;11.576;2024-01-07T10:45:21;12.90;;;4.82;;
18499;SDS011;9379;52.134;11.576;2024-01-07T10:47:49;9.25;;;4.40;;
18499;SDS011;9379;52.134;11.576;2024-01-07T10:50:17;6.57;;;4.85;;
18499;SDS011;9379;52.134;11.576;2024-01-07T10:52:47;6.47;;;4.45;;
18499;SDS011;9379;52.134;11.576;2024-01-07T10:55:18;5.03;;;4.30;;
18499;SDS011;9379;52.134;11.576;2024-01-07T10:57:46;8.00;;;4.25;;
18499;SDS011;9379;52.134;11.576;2024-01-07T11:00:15;3.45;;;3.22;;
18499;SDS011;9379;52.134;11.576;2024-01-07T11:02:57;3.78;;;3.47;;
18499;SDS011;9379;52.134;11.576;2024-01-07T11:05:33;4.30;;;3.70;;
18499;SDS011;9379;52.134;11.576;2024-01-07T11:08:10;10.23;;;2.58;;
18499;SDS011;9379;52.134;11.576;2024-01-07T11:10:45;4.20;;;3.70;;
18499;SDS011;9379;52.134;11.576;2024-01-07T11:16:01;3.83;;;3.53;;
18499;SDS011;9379;52.134;11.576;2024-01-07T11:18:28;6.57;;;4.00;;
18499;SDS011;9379;52.134;11.576;2024-01-07T11:20:59;4.25;;;4.00;;
18499;SDS011;9379;52.134;11.576;2024-01-07T11:23:26;3.75;;;3.25;;
18499;SDS011;9379;52.134;11.576;2024-01-07T11:25:57;4.22;;;3.75;;
18499;SDS011;9379;52.134;11.576;2024-01-07T11:28:43;2.97;;;2.78;;
18499;SDS011;9379;52.134;11.576;2024-01-07T11:31:14;4.18;;;3.28;;
18499;SDS011;9379;52.134;11.576;2024-01-07T11:33:42;5.90;;;4.57;;
18499;SDS011;9379;52.134;11.576;2024-01-07T11:36:10;3.15;;;2.85;;
18499;SDS011;9379;52.134;11.576;2024-01-07T11:38:41;4.97;;;3.28;;
18499;SDS011;9379;52.134;11.576;2024-01-07T11:41:10;4.47;;;3.08;;
18499;SDS011;9379;52.134;11.576;2024-01-07T11:43:39;4.47;;;3.17;;
18499;SDS011;9379;52.134;11.576;2024-01-07T11:46:19;5.28;;;3.22;;
18499;SDS011;9379;52.134;11.576;2024-01-07T11:48:45;4.00;;;3.20;;
18499;SDS011;9379;52.134;11.576;2024-01-07T11:51:13;4.80;;;3.67;;
18499;SDS011;9379;52.134;11.576;2024-01-07T11:53:41;3.50;;;3.22;;
18499;SDS011;9379;52.134;11.576;2024-01-07T11:56:08;8.13;;;3.67;;
18499;SDS011;9379;52.134;11.576;2024-01-07T11:58:36;5.00;;;3.53;;
18499;SDS011;9379;52.134;11.576;2024-01-07T12:01:03;3.80;;;3.50;;
18499;SDS011;9379;52.134;11.576;2024-01-07T12:03:31;2.75;;;2.55;;
18499;SDS011;9379;52.134;11.576;2024-01-07T12:05:58;2.88;;;2.63;;
18499;SDS011;9379;52.134;11.576;2024-01-07T12:08:25;4.90;;;3.33;;
18499;SDS011;9379;52.134;11.576;2024-01-07T12:10:52;8.25;;;3.13;;
18499;SDS011;9379;52.134;11.576;2024-01-07T12:13:21;5.03;;;2.38;;
18499;SDS011;9379;52.134;11.576;2024-01-07T12:15:49;4.18;;;3.50;;
18499;SDS011;9379;52.134;11.576;2024-01-07T12:18:16;3.95;;;3.63;;
18499;SDS011;9379;52.134;11.576;2024-01-07T12:20:54;4.80;;;3.20;;
18499;SDS011;9379;52.134;11.576;2024-01-07T12:23:21;5.15;;;3.40;;
18499;SDS011;9379;52.134;11.576;2024-01-07T12:25:48;4.38;;;3.78;;
18499;SDS011;9379;52.134;11.576;2024-01-07T12:28:16;3.67;;;3.35;;
18499;SDS011;9379;52.134;11.576;2024-01-07T12:30:44;3.05;;;2.72;;
18499;SDS011;9379;52.134;11.576;2024-01-07T12:33:12;3.17;;;2.97;;
18499;SDS011;9379;52.134;11.576;2024-01-07T12:35:44;3.03;;;2.83;;
18499;SDS011;9379;52.134;11.576;2024-01-07T12:38:11;3.10;;;2.90;;
18499;SDS011;9379;52.134;11.576;2024-01-07T12:40:38;5.32;;;3.83;;
18499;SDS011;9379;52.134;11.576;2024-01-07T12:43:05;3.55;;;3.13;;
18499;SDS011;9379;52.134;11.576;2024-01-07T12:45:32;2.60;;;2.40;;
18499;SDS011;9379;52.134;11.576;2024-01-07T12:47:59;2.22;;;2.03;;
18499;SDS011;9379;52.134;11.576;2024-01-07T12:50:29;3.38;;;3.05;;
18499;SDS011;9379;52.134;11.576;2024-01-07T12:52:56;2.58;;;2.28;;
18499;SDS011;9379;52.134;11.576;2024-01-07T12:55:24;3.10;;;2.83;;
18499;SDS011;9379;52.134;11.576;2024-01-07T12:57:51;4.68;;;2.38;;
18499;SDS011;9379;52.134;11.576;2024-01-07T13:00:19;5.72;;;2.40;;
18499;SDS011;9379;52.134;11.576;2024-01-07T13:02:46;2.70;;;2.50;;
18499;SDS011;9379;52.134;11.576;2024-01-07T13:05:13;3.90;;;3.53;;
18499;SDS011;9379;52.134;11.576;2024-01-07T13:07:41;3.78;;;2.63;;
18499;SDS011;9379;52.134;11.576;2024-01-07T13:10:08;3.00;;;2.72;;
18499;SDS011;9379;52.134;11.576;2024-01-07T13:12:35;3.70;;;3.40;;
18499;SDS011;9379;52.134;11.576;2024-01-07T13:15:03;3.35;;;3.03;;
18499;SDS011;9379;52.134;11.576;2024-01-07T13:17:30;3.15;;;2.95;;
18499;SDS011;9379;52.134;11.576;2024-01-07T13:19:58;3.03;;;2.83;;
18499;SDS011;9379;52.134;11.576;2024-01-07T13:22:25;2.47;;;2.28;;
18499;SDS011;9379;52.134;11.576;2024-01-07T13:24:53;3.05;;;2.85;;
18499;SDS011;9379;52.134;11.576;2024-01-07T13:27:20;2.60;;;2.40;;
18499;SDS011;9379;52.134;11.576;2024-01-07T13:29:48;2.90;;;2.70;;
18499;SDS011;9379;52.134;11.576;2024-01-07T13:32:16;3.35;;;3.15;;
18499;SDS011;9379;52.134;11.576;2024-01-07T13:34:44;2.65;;;2.45;;
18499;SDS011;9379;52.134;11.576;2024-01-07T13:37:11;2.22;;;2.13;;
18499;SDS011;9379;52.134;11.576;2024-01-07T13:39:38;2.70;;;2.50;;
18499;SDS011;9379;52.134;11.576;2024-01-07T13:42:06;3.47;;;3.10;;
18499;SDS011;9379;52.134;11.576;2024-01-07T13:44:33;4.93;;;3.08;;
18499;SDS011;9379;52.134;11.576;2024-01-07T13:47:00;3.25;;;2.78;;
18499;SDS011;9379;52.134;11.576;2024-01-07T13:49:27;3.25;;;2.95;;
18499;SDS011;9379;52.134;11.576;2024-01-07T13:51:54;3.80;;;3.45;;
18499;SDS011;9379;52.134;11.576;2024-01-07T13:54:21;2.88;;;2.58;;
18499;SDS011;9379;52.134;11.576;2024-01-07T13:56:48;2.70;;;2.50;;
18499;SDS011;9379;52.134;11.576;2024-01-07T13:59:17;3.47;;;3.17;;
18499;SDS011;9379;52.134;11.576;2024-01-07T14:01:44;3.45;;;3.20;;
18499;SDS011;9379;52.134;11.576;2024-01-07T14:04:11;3.10;;;2.88;;
18499;SDS011;9379;52.134;11.576;2024-01-07T14:06:38;2.75;;;2.33;;
18499;SDS011;9379;52.134;11.576;2024-01-07T14:09:05;4.22;;;2.88;;
18499;SDS011;9379;52.134;11.576;2024-01-07T14:11:34;17.08;;;9.00;;
18499;SDS011;9379;52.134;11.576;2024-01-07T14:14:00;20.92;;;11.18;;
18499;SDS011;9379;52.134;11.576;2024-01-07T14:16:29;12.02;;;7.65;;
18499;SDS011;9379;52.134;11.576;2024-01-07T14:18:56;5.45;;;5.03;;
18499;SDS011;9379;52.134;11.576;2024-01-07T14:21:22;12.73;;;6.53;;
18499;SDS011;9379;52.134;11.576;2024-01-07T14:23:50;23.75;;;8.80;;
18499;SDS011;9379;52.134;11.576;2024-01-07T14:26:17;11.93;;;6.57;;
18499;SDS011;9379;52.134;11.576;2024-01-07T14:28:48;3.25;;;2.83;;
18499;SDS011;9379;52.134;11.576;2024-01-07T14:31:15;6.30;;;4.57;;
18499;SDS011;9379;52.134;11.576;2024-01-07T14:33:43;5.25;;;4.13;;
18499;SDS011;9379;52.134;11.576;2024-01-07T14:36:10;9.98;;;5.32;;
18499;SDS011;9379;52.134;11.576;2024-01-07T14:38:42;8.07;;;4.80;;
18499;SDS011;9379;52.134;11.576;2024-01-07T14:41:09;4.22;;;3.83;;
18499;SDS011;9379;52.134;11.576;2024-01-07T14:43:36;5.63;;;4.43;;
18499;SDS011;9379;52.134;11.576;2024-01-07T14:46:03;9.25;;;5.75;;
18499;SDS011;9379;52.134;11.576;2024-01-07T14:48:32;10.68;;;6.53;;
18499;SDS011;9379;52.134;11.576;2024-01-07T14:51:06;6.57;;;4.43;;
18499;SDS011;9379;52.134;11.576;2024-01-07T14:53:33;7.68;;;4.22;;
18499;SDS011;9379;52.134;11.576;2024-01-07T14:56:00;6.18;;;4.63;;
18499;SDS011;9379;52.134;11.576;2024-01-07T14:58:27;4.50;;;4.05;;
18499;SDS011;9379;52.134;11.576;2024-01-07T15:00:54;8.57;;;5.22;;
18499;SDS011;9379;52.134;11.576;2024-01-07T15:03:23;6.57;;;4.70;;